Oval Lp No.11 — JL6306 — position and weather

sailwx.info

Track history (hours):
 
Tides and Currents Weather Stations Pressure Air Temp Water Temp Dewpoint Dewpoint Depression Visibility Wind Speed Wind Dir Waves Ship Positions

Oval Lp No.11

Last reported at 2014-Aug-31 09:20 UTC. Time now 2014-Sep-01 07:55 UTC.
Position N 33°57' E 135°01'.

Length 67 m; draft 3.6 m.

Type: Ship (hazmat cat A). MMSI: 431500366.

Date/timePositionNaut miles runAvg speedWind from/ knotsBaromVisibWave heightAir tempDewpointWater temp
2014-Aug-31 09:20N 33°57' E 135°01'1012.4
2014-Aug-31 08:33N 34°07' E 134°60'1313.2
2014-Aug-31 07:34N 34°20' E 134°60'1312.6
2014-Aug-31 06:33N 34°29' E 135°11'1211.7
2014-Aug-31 05:33N 34°36' E 135°22'3 2.9
2014-Aug-31 04:22N 34°34' E 135°26'0 0.0
2014-Aug-31 03:28N 34°34' E 135°26'0 0.0
2014-Aug-31 02:28N 34°34' E 135°26'3 3.1
2014-Aug-31 01:33N 34°36' E 135°23'0 0.4
2014-Aug-31 00:30N 34°36' E 135°23'5 5.2
2014-Aug-30 23:33N 34°32' E 135°18'1110.7
2014-Aug-30 22:32N 34°25' E 135°09'1210.4
2014-Aug-30 21:26N 34°16' E 134°59'8 9.2
2014-Aug-30 20:33N 34°08' E 135°00'4 0.1
2014-Aug-29 05:31N 34°04' E 134°59'1313.2
2014-Aug-29 04:32N 34°17' E 134°58'1212.4
2014-Aug-29 03:33N 34°27' E 135°08'1212.3
2014-Aug-29 02:33N 34°34' E 135°20'5 4.3
2014-Aug-29 01:22N 34°34' E 135°26'0 0.0
2014-Aug-29 00:34N 34°34' E 135°26'0 0.0
2014-Aug-28 23:28N 34°34' E 135°26'1 0.6
2014-Aug-28 22:32N 34°35' E 135°25'2 2.0
2014-Aug-28 21:26N 34°36' E 135°23'0 0.0
2014-Aug-28 20:32N 34°36' E 135°23'0 0.0
2014-Aug-28 19:32N 34°36' E 135°23'0 0.0
2014-Aug-28 18:20N 34°36' E 135°23'0 0.0
2014-Aug-28 17:32N 34°36' E 135°23'0 0.0
2014-Aug-28 16:32N 34°36' E 135°23'0 0.0
2014-Aug-28 15:32N 34°36' E 135°23'0 0.0
2014-Aug-28 14:32N 34°36' E 135°23'0 0.0
2014-Aug-28 12:26N 34°36' E 135°23'0 0.0
2014-Aug-28 11:32N 34°36' E 135°23'2 2.0
2014-Aug-28 10:33N 34°34' E 135°21'1111.3
2014-Aug-28 09:33N 34°27' E 135°11'1111.0
2014-Aug-28 08:32N 34°19' E 135°02'9 8.7
2014-Aug-28 07:33N 34°10' E 134°60'224 9.7
2014-Aug-27 08:32N 34°57' E 139°26'1111.6
2014-Aug-27 07:33N 35°04' E 139°37'1212.2
2014-Aug-27 06:33N 35°14' E 139°46'1111.2
2014-Aug-27 05:33N 35°25' E 139°43'1211.8
2014-Aug-27 04:33N 35°31' E 139°56'8 7.9
2014-Aug-27 03:33N 35°33' E 140°05'0 0.0
2014-Aug-27 02:32N 35°33' E 140°05'0 0.0
2014-Aug-27 01:32N 35°33' E 140°05'0 0.0
2014-Aug-27 00:32N 35°33' E 140°05'2 2.1
2014-Aug-26 23:33N 35°33' E 140°03'8 7.8
2014-Aug-26 22:31N 35°29' E 139°55'0 0.0
2014-Aug-26 21:31N 35°29' E 139°55'0 0.0
2014-Aug-26 20:31N 35°29' E 139°55'0 0.0
2014-Aug-26 19:31N 35°29' E 139°55'0 0.0
2014-Aug-26 18:25N 35°29' E 139°55'0 0.0
2014-Aug-26 17:31N 35°29' E 139°55'0 0.0
2014-Aug-26 16:28N 35°29' E 139°55'0 0.0
2014-Aug-26 15:31N 35°29' E 139°55'0 0.0
2014-Aug-26 14:31N 35°29' E 139°55'0 0.0
2014-Aug-26 13:31N 35°29' E 139°55'0 0.0
2014-Aug-26 12:31N 35°29' E 139°55'8 8.0
2014-Aug-26 11:33N 35°25' E 139°47'9 9.3
2014-Aug-26 10:33N 35°15' E 139°47'1010.5
2014-Aug-26 09:33N 35°05' E 139°42'1211.8
2014-Aug-26 08:33N 34°58' E 139°32'23110.4
2014-Aug-25 10:21N 33°59' E 135°01'911.3
2014-Aug-25 09:33N 34°08' E 134°59'1211.5
2014-Aug-25 08:33N 34°20' E 134°59'1211.5
2014-Aug-25 07:32N 34°28' E 135°09'1212.2
2014-Aug-25 06:33N 34°35' E 135°21'4 3.9
2014-Aug-25 05:33N 34°34' E 135°26'0 0.0
2014-Aug-25 04:33N 34°34' E 135°26'0 0.0
2014-Aug-25 03:27N 34°34' E 135°26'0 0.4
2014-Aug-25 02:28N 34°35' E 135°26'3 2.9
2014-Aug-25 01:33N 34°36' E 135°23'1 0.6
2014-Aug-25 00:32N 34°36' E 135°23'0 0.4
2014-Aug-24 23:33N 34°36' E 135°23'1211.6
2014-Aug-24 22:33N 34°28' E 135°12'1211.9
2014-Aug-24 21:32N 34°19' E 135°02'1111.5
2014-Aug-24 20:33N 34°08' E 134°60'  
2014-Aug-21 10:32N 34°35' E 134°53'1312.9
2014-Aug-21 09:33N 34°36' E 135°08'  
Track history (hours):
 
Tides and Currents Weather Stations Pressure Air Temp Water Temp Dewpoint Dewpoint Depression Visibility Wind Speed Wind Dir Waves Ship Positions

Oval Lp No.11

Last reported at 2014-Aug-31 09:20 UTC. Time now 2014-Sep-01 07:55 UTC.
Position N 33°57' E 135°01'.

Length 67 m; draft 3.6 m.

Type: Ship (hazmat cat A). MMSI: 431500366.

Date/timePositionNaut miles runAvg speedWind from/ knotsBaromVisibWave heightAir tempDewpointWater temp
2014-Aug-31 09:20N 33°57' E 135°01'1012.4
2014-Aug-31 08:33N 34°07' E 134°60'1313.2
2014-Aug-31 07:34N 34°20' E 134°60'1312.6
2014-Aug-31 06:33N 34°29' E 135°11'1211.7
2014-Aug-31 05:33N 34°36' E 135°22'3 2.9
2014-Aug-31 04:22N 34°34' E 135°26'0 0.0
2014-Aug-31 03:28N 34°34' E 135°26'0 0.0
2014-Aug-31 02:28N 34°34' E 135°26'3 3.1
2014-Aug-31 01:33N 34°36' E 135°23'0 0.4
2014-Aug-31 00:30N 34°36' E 135°23'5 5.2
2014-Aug-30 23:33N 34°32' E 135°18'1110.7
2014-Aug-30 22:32N 34°25' E 135°09'1210.4
2014-Aug-30 21:26N 34°16' E 134°59'8 9.2
2014-Aug-30 20:33N 34°08' E 135°00'4 0.1
2014-Aug-29 05:31N 34°04' E 134°59'1313.2
2014-Aug-29 04:32N 34°17' E 134°58'1212.4
2014-Aug-29 03:33N 34°27' E 135°08'1212.3
2014-Aug-29 02:33N 34°34' E 135°20'5 4.3
2014-Aug-29 01:22N 34°34' E 135°26'0 0.0
2014-Aug-29 00:34N 34°34' E 135°26'0 0.0
2014-Aug-28 23:28N 34°34' E 135°26'1 0.6
2014-Aug-28 22:32N 34°35' E 135°25'2 2.0
2014-Aug-28 21:26N 34°36' E 135°23'0 0.0
2014-Aug-28 20:32N 34°36' E 135°23'0 0.0
2014-Aug-28 19:32N 34°36' E 135°23'0 0.0
2014-Aug-28 18:20N 34°36' E 135°23'0 0.0
2014-Aug-28 17:32N 34°36' E 135°23'0 0.0
2014-Aug-28 16:32N 34°36' E 135°23'0 0.0
2014-Aug-28 15:32N 34°36' E 135°23'0 0.0
2014-Aug-28 14:32N 34°36' E 135°23'0 0.0
2014-Aug-28 12:26N 34°36' E 135°23'0 0.0
2014-Aug-28 11:32N 34°36' E 135°23'2 2.0
2014-Aug-28 10:33N 34°34' E 135°21'1111.3
2014-Aug-28 09:33N 34°27' E 135°11'1111.0
2014-Aug-28 08:32N 34°19' E 135°02'9 8.7
2014-Aug-28 07:33N 34°10' E 134°60'224 9.7
2014-Aug-27 08:32N 34°57' E 139°26'1111.6
2014-Aug-27 07:33N 35°04' E 139°37'1212.2
2014-Aug-27 06:33N 35°14' E 139°46'1111.2
2014-Aug-27 05:33N 35°25' E 139°43'1211.8
2014-Aug-27 04:33N 35°31' E 139°56'8 7.9
2014-Aug-27 03:33N 35°33' E 140°05'0 0.0
2014-Aug-27 02:32N 35°33' E 140°05'0 0.0
2014-Aug-27 01:32N 35°33' E 140°05'0 0.0
2014-Aug-27 00:32N 35°33' E 140°05'2 2.1
2014-Aug-26 23:33N 35°33' E 140°03'8 7.8
2014-Aug-26 22:31N 35°29' E 139°55'0 0.0
2014-Aug-26 21:31N 35°29' E 139°55'0 0.0
2014-Aug-26 20:31N 35°29' E 139°55'0 0.0
2014-Aug-26 19:31N 35°29' E 139°55'0 0.0
2014-Aug-26 18:25N 35°29' E 139°55'0 0.0
2014-Aug-26 17:31N 35°29' E 139°55'0 0.0
2014-Aug-26 16:28N 35°29' E 139°55'0 0.0
2014-Aug-26 15:31N 35°29' E 139°55'0 0.0
2014-Aug-26 14:31N 35°29' E 139°55'0 0.0
2014-Aug-26 13:31N 35°29' E 139°55'0 0.0
2014-Aug-26 12:31N 35°29' E 139°55'8 8.0
2014-Aug-26 11:33N 35°25' E 139°47'9 9.3
2014-Aug-26 10:33N 35°15' E 139°47'1010.5
2014-Aug-26 09:33N 35°05' E 139°42'1211.8
2014-Aug-26 08:33N 34°58' E 139°32'23110.4
2014-Aug-25 10:21N 33°59' E 135°01'911.3
2014-Aug-25 09:33N 34°08' E 134°59'1211.5
2014-Aug-25 08:33N 34°20' E 134°59'1211.5
2014-Aug-25 07:32N 34°28' E 135°09'1212.2
2014-Aug-25 06:33N 34°35' E 135°21'4 3.9
2014-Aug-25 05:33N 34°34' E 135°26'0 0.0
2014-Aug-25 04:33N 34°34' E 135°26'0 0.0
2014-Aug-25 03:27N 34°34' E 135°26'0 0.4
2014-Aug-25 02:28N 34°35' E 135°26'3 2.9
2014-Aug-25 01:33N 34°36' E 135°23'1 0.6
2014-Aug-25 00:32N 34°36' E 135°23'0 0.4
2014-Aug-24 23:33N 34°36' E 135°23'1211.6
2014-Aug-24 22:33N 34°28' E 135°12'1211.9
2014-Aug-24 21:32N 34°19' E 135°02'1111.5
2014-Aug-24 20:33N 34°08' E 134°60'  
2014-Aug-21 10:32N 34°35' E 134°53'1312.9
2014-Aug-21 09:33N 34°36' E 135°08'  

Dump ship's entire track history